sensor_id;sensor_type;location;lat;lon;timestamp;P1;durP1;ratioP1;P2;durP2;ratioP2
13263;SDS011;6700;51.988;7.646;2022-07-24T00:01:26;3.40;;;3.10;;
13263;SDS011;6700;51.988;7.646;2022-07-24T00:04:04;4.20;;;3.73;;
13263;SDS011;6700;51.988;7.646;2022-07-24T00:06:44;3.60;;;3.30;;
13263;SDS011;6700;51.988;7.646;2022-07-24T00:09:15;5.47;;;3.20;;
13263;SDS011;6700;51.988;7.646;2022-07-24T00:12:07;5.17;;;3.57;;
13263;SDS011;6700;51.988;7.646;2022-07-24T00:14:39;3.87;;;3.57;;
13263;SDS011;6700;51.988;7.646;2022-07-24T00:17:23;4.23;;;3.83;;
13263;SDS011;6700;51.988;7.646;2022-07-24T00:19:54;4.13;;;3.73;;
13263;SDS011;6700;51.988;7.646;2022-07-24T00:22:25;5.07;;;3.97;;
13263;SDS011;6700;51.988;7.646;2022-07-24T00:24:56;4.07;;;3.67;;
13263;SDS011;6700;51.988;7.646;2022-07-24T00:27:39;4.93;;;4.10;;
13263;SDS011;6700;51.988;7.646;2022-07-24T00:30:16;4.43;;;4.10;;
13263;SDS011;6700;51.988;7.646;2022-07-24T00:32:44;4.17;;;3.77;;
13263;SDS011;6700;51.988;7.646;2022-07-24T00:35:12;5.13;;;3.97;;
13263;SDS011;6700;51.988;7.646;2022-07-24T00:37:39;4.73;;;4.33;;
13263;SDS011;6700;51.988;7.646;2022-07-24T00:40:06;5.13;;;4.63;;
13263;SDS011;6700;51.988;7.646;2022-07-24T00:42:34;4.77;;;4.20;;
13263;SDS011;6700;51.988;7.646;2022-07-24T00:45:01;6.53;;;4.40;;
13263;SDS011;6700;51.988;7.646;2022-07-24T00:47:32;4.60;;;4.20;;
13263;SDS011;6700;51.988;7.646;2022-07-24T00:50:02;4.57;;;4.17;;
13263;SDS011;6700;51.988;7.646;2022-07-24T00:52:34;6.10;;;4.53;;
13263;SDS011;6700;51.988;7.646;2022-07-24T00:55:02;5.53;;;4.00;;
13263;SDS011;6700;51.988;7.646;2022-07-24T00:57:30;4.30;;;3.87;;
13263;SDS011;6700;51.988;7.646;2022-07-24T00:59:57;3.80;;;3.50;;
13263;SDS011;6700;51.988;7.646;2022-07-24T01:02:24;14.50;;;4.73;;
13263;SDS011;6700;51.988;7.646;2022-07-24T01:04:52;5.63;;;5.00;;
13263;SDS011;6700;51.988;7.646;2022-07-24T01:07:19;4.90;;;4.50;;
13263;SDS011;6700;51.988;7.646;2022-07-24T01:09:46;6.10;;;4.27;;
13263;SDS011;6700;51.988;7.646;2022-07-24T01:12:13;5.47;;;4.93;;
13263;SDS011;6700;51.988;7.646;2022-07-24T01:14:41;4.30;;;3.90;;
13263;SDS011;6700;51.988;7.646;2022-07-24T01:17:09;5.67;;;4.13;;
13263;SDS011;6700;51.988;7.646;2022-07-24T01:19:36;4.20;;;3.90;;
13263;SDS011;6700;51.988;7.646;2022-07-24T01:22:03;6.03;;;4.43;;
13263;SDS011;6700;51.988;7.646;2022-07-24T01:24:31;5.93;;;4.70;;
13263;SDS011;6700;51.988;7.646;2022-07-24T01:26:58;4.83;;;4.43;;
13263;SDS011;6700;51.988;7.646;2022-07-24T01:29:26;5.70;;;5.00;;
13263;SDS011;6700;51.988;7.646;2022-07-24T01:31:53;5.30;;;4.20;;
13263;SDS011;6700;51.988;7.646;2022-07-24T01:34:20;4.63;;;4.23;;
13263;SDS011;6700;51.988;7.646;2022-07-24T01:36:47;5.00;;;4.60;;
13263;SDS011;6700;51.988;7.646;2022-07-24T01:39:14;5.03;;;4.53;;
13263;SDS011;6700;51.988;7.646;2022-07-24T01:41:41;4.63;;;4.10;;
13263;SDS011;6700;51.988;7.646;2022-07-24T01:44:07;6.93;;;4.50;;
13263;SDS011;6700;51.988;7.646;2022-07-24T01:46:35;5.57;;;4.37;;
13263;SDS011;6700;51.988;7.646;2022-07-24T01:49:02;6.23;;;5.00;;
13263;SDS011;6700;51.988;7.646;2022-07-24T01:51:31;6.37;;;5.20;;
13263;SDS011;6700;51.988;7.646;2022-07-24T01:53:58;5.40;;;4.90;;
13263;SDS011;6700;51.988;7.646;2022-07-24T01:56:25;4.60;;;4.17;;
13263;SDS011;6700;51.988;7.646;2022-07-24T01:58:53;4.90;;;4.47;;
13263;SDS011;6700;51.988;7.646;2022-07-24T02:01:20;5.60;;;4.47;;
13263;SDS011;6700;51.988;7.646;2022-07-24T02:03:47;5.10;;;4.60;;
13263;SDS011;6700;51.988;7.646;2022-07-24T02:06:14;5.77;;;5.17;;
13263;SDS011;6700;51.988;7.646;2022-07-24T02:08:42;5.10;;;4.70;;
13263;SDS011;6700;51.988;7.646;2022-07-24T02:11:10;5.07;;;4.60;;
13263;SDS011;6700;51.988;7.646;2022-07-24T02:13:37;5.17;;;4.67;;
13263;SDS011;6700;51.988;7.646;2022-07-24T02:16:04;6.17;;;5.03;;
13263;SDS011;6700;51.988;7.646;2022-07-24T02:18:31;9.40;;;5.60;;
13263;SDS011;6700;51.988;7.646;2022-07-24T02:20:59;6.67;;;5.33;;
13263;SDS011;6700;51.988;7.646;2022-07-24T02:23:26;5.90;;;5.33;;
13263;SDS011;6700;51.988;7.646;2022-07-24T02:25:53;5.93;;;5.13;;
13263;SDS011;6700;51.988;7.646;2022-07-24T02:28:22;7.53;;;5.20;;
13263;SDS011;6700;51.988;7.646;2022-07-24T02:30:49;6.00;;;5.40;;
13263;SDS011;6700;51.988;7.646;2022-07-24T02:37:04;5.37;;;4.57;;
13263;SDS011;6700;51.988;7.646;2022-07-24T02:39:31;6.90;;;5.23;;
13263;SDS011;6700;51.988;7.646;2022-07-24T02:42:00;6.03;;;5.53;;
13263;SDS011;6700;51.988;7.646;2022-07-24T02:44:27;7.27;;;6.57;;
13263;SDS011;6700;51.988;7.646;2022-07-24T02:46:55;6.87;;;6.17;;
13263;SDS011;6700;51.988;7.646;2022-07-24T02:49:22;7.53;;;6.13;;
13263;SDS011;6700;51.988;7.646;2022-07-24T02:51:51;6.27;;;5.77;;
13263;SDS011;6700;51.988;7.646;2022-07-24T02:54:18;7.73;;;7.07;;
13263;SDS011;6700;51.988;7.646;2022-07-24T02:56:45;7.47;;;5.80;;
13263;SDS011;6700;51.988;7.646;2022-07-24T02:59:12;7.27;;;6.57;;
13263;SDS011;6700;51.988;7.646;2022-07-24T03:01:39;6.37;;;5.83;;
13263;SDS011;6700;51.988;7.646;2022-07-24T03:04:06;7.20;;;5.60;;
13263;SDS011;6700;51.988;7.646;2022-07-24T03:06:33;6.57;;;5.97;;
13263;SDS011;6700;51.988;7.646;2022-07-24T03:09:01;6.10;;;5.63;;
13263;SDS011;6700;51.988;7.646;2022-07-24T03:11:29;7.07;;;6.43;;
13263;SDS011;6700;51.988;7.646;2022-07-24T03:13:56;7.13;;;6.53;;
13263;SDS011;6700;51.988;7.646;2022-07-24T03:16:23;7.83;;;6.80;;
13263;SDS011;6700;51.988;7.646;2022-07-24T03:18:50;9.60;;;7.17;;
13263;SDS011;6700;51.988;7.646;2022-07-24T03:21:17;7.70;;;6.27;;
13263;SDS011;6700;51.988;7.646;2022-07-24T03:24:05;6.60;;;5.77;;
13263;SDS011;6700;51.988;7.646;2022-07-24T03:26:33;6.97;;;5.77;;
13263;SDS011;6700;51.988;7.646;2022-07-24T03:29:02;7.77;;;5.93;;
13263;SDS011;6700;51.988;7.646;2022-07-24T03:31:29;8.47;;;6.40;;
13263;SDS011;6700;51.988;7.646;2022-07-24T03:33:56;6.17;;;5.57;;
13263;SDS011;6700;51.988;7.646;2022-07-24T03:36:25;7.13;;;6.43;;
13263;SDS011;6700;51.988;7.646;2022-07-24T03:38:51;9.03;;;6.40;;
13263;SDS011;6700;51.988;7.646;2022-07-24T03:41:19;10.73;;;6.77;;
13263;SDS011;6700;51.988;7.646;2022-07-24T03:43:46;7.00;;;6.37;;
13263;SDS011;6700;51.988;7.646;2022-07-24T03:46:13;8.07;;;6.67;;
13263;SDS011;6700;51.988;7.646;2022-07-24T03:48:40;6.40;;;5.90;;
13263;SDS011;6700;51.988;7.646;2022-07-24T03:51:07;7.80;;;6.60;;
13263;SDS011;6700;51.988;7.646;2022-07-24T03:53:35;7.63;;;6.83;;
13263;SDS011;6700;51.988;7.646;2022-07-24T03:56:09;6.90;;;6.20;;
13263;SDS011;6700;51.988;7.646;2022-07-24T03:58:37;8.37;;;6.63;;
13263;SDS011;6700;51.988;7.646;2022-07-24T04:01:05;8.60;;;6.47;;
13263;SDS011;6700;51.988;7.646;2022-07-24T04:03:33;7.47;;;6.77;;
13263;SDS011;6700;51.988;7.646;2022-07-24T04:06:01;8.37;;;7.47;;
13263;SDS011;6700;51.988;7.646;2022-07-24T04:08:29;7.17;;;6.47;;
13263;SDS011;6700;51.988;7.646;2022-07-24T04:10:56;9.50;;;6.73;;
13263;SDS011;6700;51.988;7.646;2022-07-24T04:13:28;7.80;;;7.03;;
13263;SDS011;6700;51.988;7.646;2022-07-24T04:15:56;8.50;;;7.67;;
13263;SDS011;6700;51.988;7.646;2022-07-24T04:18:23;7.80;;;6.93;;
13263;SDS011;6700;51.988;7.646;2022-07-24T04:20:51;7.27;;;6.67;;
13263;SDS011;6700;51.988;7.646;2022-07-24T04:23:17;10.90;;;7.90;;
13263;SDS011;6700;51.988;7.646;2022-07-24T04:25:45;7.47;;;6.77;;
13263;SDS011;6700;51.988;7.646;2022-07-24T04:28:12;7.83;;;7.07;;
13263;SDS011;6700;51.988;7.646;2022-07-24T04:30:40;9.10;;;7.10;;
13263;SDS011;6700;51.988;7.646;2022-07-24T04:33:07;11.10;;;8.50;;
13263;SDS011;6700;51.988;7.646;2022-07-24T04:35:34;9.67;;;7.27;;
13263;SDS011;6700;51.988;7.646;2022-07-24T04:38:01;8.40;;;7.50;;
13263;SDS011;6700;51.988;7.646;2022-07-24T04:40:28;11.30;;;7.70;;
13263;SDS011;6700;51.988;7.646;2022-07-24T04:42:55;11.90;;;8.40;;
13263;SDS011;6700;51.988;7.646;2022-07-24T04:45:22;10.57;;;7.30;;
13263;SDS011;6700;51.988;7.646;2022-07-24T04:47:49;11.57;;;7.67;;
13263;SDS011;6700;51.988;7.646;2022-07-24T04:50:16;8.90;;;7.37;;
13263;SDS011;6700;51.988;7.646;2022-07-24T04:52:43;7.90;;;7.03;;
13263;SDS011;6700;51.988;7.646;2022-07-24T04:55:10;9.03;;;7.20;;
13263;SDS011;6700;51.988;7.646;2022-07-24T04:57:37;7.33;;;6.53;;
13263;SDS011;6700;51.988;7.646;2022-07-24T05:00:05;7.70;;;6.97;;
13263;SDS011;6700;51.988;7.646;2022-07-24T05:02:36;7.20;;;6.53;;
13263;SDS011;6700;51.988;7.646;2022-07-24T05:05:04;7.70;;;6.67;;
13263;SDS011;6700;51.988;7.646;2022-07-24T05:07:31;7.70;;;6.97;;
13263;SDS011;6700;51.988;7.646;2022-07-24T05:09:58;7.53;;;6.73;;
13263;SDS011;6700;51.988;7.646;2022-07-24T05:12:26;9.77;;;6.97;;
13263;SDS011;6700;51.988;7.646;2022-07-24T05:14:53;6.87;;;6.23;;
13263;SDS011;6700;51.988;7.646;2022-07-24T05:17:20;9.83;;;7.17;;
13263;SDS011;6700;51.988;7.646;2022-07-24T05:19:47;12.37;;;7.23;;
13263;SDS011;6700;51.988;7.646;2022-07-24T05:22:14;8.90;;;6.30;;
13263;SDS011;6700;51.988;7.646;2022-07-24T05:24:41;6.83;;;6.23;;
13263;SDS011;6700;51.988;7.646;2022-07-24T05:27:07;7.90;;;6.83;;
13263;SDS011;6700;51.988;7.646;2022-07-24T05:29:37;7.40;;;6.70;;
13263;SDS011;6700;51.988;7.646;2022-07-24T05:32:07;7.23;;;6.53;;
13263;SDS011;6700;51.988;7.646;2022-07-24T05:34:34;7.23;;;6.40;;
13263;SDS011;6700;51.988;7.646;2022-07-24T05:37:06;6.67;;;6.07;;
13263;SDS011;6700;51.988;7.646;2022-07-24T05:39:35;7.30;;;6.60;;
13263;SDS011;6700;51.988;7.646;2022-07-24T05:43:06;7.00;;;6.40;;
13263;SDS011;6700;51.988;7.646;2022-07-24T05:45:37;9.37;;;5.83;;
13263;SDS011;6700;51.988;7.646;2022-07-24T05:48:04;6.60;;;6.00;;
13263;SDS011;6700;51.988;7.646;2022-07-24T05:50:31;6.87;;;6.27;;
13263;SDS011;6700;51.988;7.646;2022-07-24T05:53:00;8.67;;;5.87;;
13263;SDS011;6700;51.988;7.646;2022-07-24T05:55:27;8.70;;;6.53;;
13263;SDS011;6700;51.988;7.646;2022-07-24T05:57:54;7.87;;;7.17;;
13263;SDS011;6700;51.988;7.646;2022-07-24T06:00:21;6.80;;;5.93;;
13263;SDS011;6700;51.988;7.646;2022-07-24T06:02:49;6.37;;;5.63;;
13263;SDS011;6700;51.988;7.646;2022-07-24T06:05:16;5.77;;;5.27;;
13263;SDS011;6700;51.988;7.646;2022-07-24T06:07:44;8.83;;;6.03;;
13263;SDS011;6700;51.988;7.646;2022-07-24T06:10:11;7.07;;;6.27;;
13263;SDS011;6700;51.988;7.646;2022-07-24T06:12:41;6.90;;;6.13;;
13263;SDS011;6700;51.988;7.646;2022-07-24T06:15:09;6.23;;;5.63;;
13263;SDS011;6700;51.988;7.646;2022-07-24T06:17:36;5.90;;;5.30;;
13263;SDS011;6700;51.988;7.646;2022-07-24T06:20:08;8.80;;;5.80;;
13263;SDS011;6700;51.988;7.646;2022-07-24T06:22:39;6.93;;;6.23;;
13263;SDS011;6700;51.988;7.646;2022-07-24T06:25:14;7.60;;;5.90;;
13263;SDS011;6700;51.988;7.646;2022-07-24T06:27:41;6.37;;;5.77;;
13263;SDS011;6700;51.988;7.646;2022-07-24T06:30:22;7.60;;;5.43;;
13263;SDS011;6700;51.988;7.646;2022-07-24T06:32:54;6.30;;;5.63;;
13263;SDS011;6700;51.988;7.646;2022-07-24T06:35:23;6.20;;;5.33;;
13263;SDS011;6700;51.988;7.646;2022-07-24T06:37:51;8.57;;;5.40;;
13263;SDS011;6700;51.988;7.646;2022-07-24T06:40:19;5.50;;;5.00;;
13263;SDS011;6700;51.988;7.646;2022-07-24T06:42:52;5.97;;;5.37;;
13263;SDS011;6700;51.988;7.646;2022-07-24T06:45:20;5.83;;;5.20;;
13263;SDS011;6700;51.988;7.646;2022-07-24T06:48:03;5.47;;;4.97;;
13263;SDS011;6700;51.988;7.646;2022-07-24T06:50:30;5.97;;;4.97;;
13263;SDS011;6700;51.988;7.646;2022-07-24T06:52:58;6.87;;;5.10;;
13263;SDS011;6700;51.988;7.646;2022-07-24T06:55:25;5.23;;;4.73;;
13263;SDS011;6700;51.988;7.646;2022-07-24T06:57:57;9.82;;;4.85;;
13263;SDS011;6700;51.988;7.646;2022-07-24T07:00:24;5.18;;;4.68;;
13263;SDS011;6700;51.988;7.646;2022-07-24T07:02:52;7.07;;;5.13;;
13263;SDS011;6700;51.988;7.646;2022-07-24T07:05:21;4.60;;;4.20;;
13263;SDS011;6700;51.988;7.646;2022-07-24T07:07:55;5.35;;;4.47;;
13263;SDS011;6700;51.988;7.646;2022-07-24T07:10:25;6.57;;;4.03;;
13263;SDS011;6700;51.988;7.646;2022-07-24T07:13:19;5.90;;;4.70;;
13263;SDS011;6700;51.988;7.646;2022-07-24T07:15:46;5.10;;;4.18;;
13263;SDS011;6700;51.988;7.646;2022-07-24T07:18:16;5.75;;;4.63;;
13263;SDS011;6700;51.988;7.646;2022-07-24T07:20:47;4.82;;;4.47;;
13263;SDS011;6700;51.988;7.646;2022-07-24T07:23:23;5.75;;;4.90;;
13263;SDS011;6700;51.988;7.646;2022-07-24T07:25:56;5.18;;;4.53;;
13263;SDS011;6700;51.988;7.646;2022-07-24T07:28:26;6.60;;;4.90;;
13263;SDS011;6700;51.988;7.646;2022-07-24T07:30:57;6.70;;;4.90;;
13263;SDS011;6700;51.988;7.646;2022-07-24T07:33:27;6.57;;;4.50;;
13263;SDS011;6700;51.988;7.646;2022-07-24T07:36:06;5.30;;;4.30;;
13263;SDS011;6700;51.988;7.646;2022-07-24T07:38:40;5.28;;;4.63;;
13263;SDS011;6700;51.988;7.646;2022-07-24T07:41:07;5.35;;;4.72;;
13263;SDS011;6700;51.988;7.646;2022-07-24T07:43:36;5.25;;;4.75;;
13263;SDS011;6700;51.988;7.646;2022-07-24T07:46:04;6.22;;;4.38;;
13263;SDS011;6700;51.988;7.646;2022-07-24T07:48:38;7.07;;;4.55;;
13263;SDS011;6700;51.988;7.646;2022-07-24T07:51:09;4.90;;;4.50;;
13263;SDS011;6700;51.988;7.646;2022-07-24T07:53:36;4.88;;;4.47;;
13263;SDS011;6700;51.988;7.646;2022-07-24T07:56:07;5.22;;;4.15;;
13263;SDS011;6700;51.988;7.646;2022-07-24T07:58:34;6.10;;;4.40;;
13263;SDS011;6700;51.988;7.646;2022-07-24T08:01:04;5.00;;;4.60;;
13263;SDS011;6700;51.988;7.646;2022-07-24T08:03:34;6.85;;;4.75;;
13263;SDS011;6700;51.988;7.646;2022-07-24T08:06:11;5.18;;;4.70;;
13263;SDS011;6700;51.988;7.646;2022-07-24T08:08:40;8.57;;;4.80;;
13263;SDS011;6700;51.988;7.646;2022-07-24T08:11:16;6.50;;;4.78;;
13263;SDS011;6700;51.988;7.646;2022-07-24T08:13:48;4.53;;;4.13;;
13263;SDS011;6700;51.988;7.646;2022-07-24T08:16:33;7.00;;;4.82;;
13263;SDS011;6700;51.988;7.646;2022-07-24T08:19:05;5.18;;;4.45;;
13263;SDS011;6700;51.988;7.646;2022-07-24T08:21:33;9.85;;;4.53;;
13263;SDS011;6700;51.988;7.646;2022-07-24T08:24:02;5.45;;;4.93;;
13263;SDS011;6700;51.988;7.646;2022-07-24T08:27:06;5.15;;;4.65;;
13263;SDS011;6700;51.988;7.646;2022-07-24T08:30:17;5.60;;;4.13;;
13263;SDS011;6700;51.988;7.646;2022-07-24T08:35:38;5.03;;;4.35;;
13263;SDS011;6700;51.988;7.646;2022-07-24T08:38:08;4.47;;;4.07;;
13263;SDS011;6700;51.988;7.646;2022-07-24T08:40:38;4.85;;;4.25;;
13263;SDS011;6700;51.988;7.646;2022-07-24T08:43:07;5.22;;;4.72;;
13263;SDS011;6700;51.988;7.646;2022-07-24T08:45:37;5.38;;;4.97;;
13263;SDS011;6700;51.988;7.646;2022-07-24T08:48:06;5.68;;;4.68;;
13263;SDS011;6700;51.988;7.646;2022-07-24T08:50:35;5.30;;;4.80;;
13263;SDS011;6700;51.988;7.646;2022-07-24T08:53:02;4.38;;;4.07;;
13263;SDS011;6700;51.988;7.646;2022-07-24T08:55:30;4.68;;;4.20;;
13263;SDS011;6700;51.988;7.646;2022-07-24T08:57:59;5.97;;;4.70;;
13263;SDS011;6700;51.988;7.646;2022-07-24T09:00:27;9.32;;;4.60;;
13263;SDS011;6700;51.988;7.646;2022-07-24T09:02:54;6.55;;;4.95;;
13263;SDS011;6700;51.988;7.646;2022-07-24T09:05:22;6.70;;;4.68;;
13263;SDS011;6700;51.988;7.646;2022-07-24T09:10:21;5.05;;;4.65;;
13263;SDS011;6700;51.988;7.646;2022-07-24T09:12:48;8.68;;;4.72;;
13263;SDS011;6700;51.988;7.646;2022-07-24T09:15:19;6.15;;;5.47;;
13263;SDS011;6700;51.988;7.646;2022-07-24T09:17:56;5.40;;;4.90;;
13263;SDS011;6700;51.988;7.646;2022-07-24T09:20:26;5.50;;;5.00;;
13263;SDS011;6700;51.988;7.646;2022-07-24T09:22:56;6.07;;;5.47;;
13263;SDS011;6700;51.988;7.646;2022-07-24T09:25:32;5.72;;;5.22;;
13263;SDS011;6700;51.988;7.646;2022-07-24T09:28:01;5.22;;;4.80;;
13263;SDS011;6700;51.988;7.646;2022-07-24T09:30:33;7.97;;;5.43;;
13263;SDS011;6700;51.988;7.646;2022-07-24T09:33:04;14.02;;;6.47;;
13263;SDS011;6700;51.988;7.646;2022-07-24T09:35:34;7.95;;;6.18;;
13263;SDS011;6700;51.988;7.646;2022-07-24T09:38:05;6.45;;;5.80;;
13263;SDS011;6700;51.988;7.646;2022-07-24T09:40:34;7.25;;;5.63;;
13263;SDS011;6700;51.988;7.646;2022-07-24T09:43:11;5.88;;;4.75;;
13263;SDS011;6700;51.988;7.646;2022-07-24T09:48:25;6.65;;;5.35;;
13263;SDS011;6700;51.988;7.646;2022-07-24T09:50:54;6.75;;;5.65;;
13263;SDS011;6700;51.988;7.646;2022-07-24T09:53:23;5.38;;;4.90;;
13263;SDS011;6700;51.988;7.646;2022-07-24T09:55:57;6.35;;;5.07;;
13263;SDS011;6700;51.988;7.646;2022-07-24T09:58:25;8.65;;;5.57;;
13263;SDS011;6700;51.988;7.646;2022-07-24T10:00:53;8.73;;;6.05;;
13263;SDS011;6700;51.988;7.646;2022-07-24T10:03:26;7.50;;;5.53;;
13263;SDS011;6700;51.988;7.646;2022-07-24T10:05:55;6.55;;;6.05;;
13263;SDS011;6700;51.988;7.646;2022-07-24T10:08:24;7.43;;;5.63;;
13263;SDS011;6700;51.988;7.646;2022-07-24T10:10:51;6.75;;;6.07;;
13263;SDS011;6700;51.988;7.646;2022-07-24T10:13:23;7.97;;;5.72;;
13263;SDS011;6700;51.988;7.646;2022-07-24T10:18:39;6.88;;;6.20;;
13263;SDS011;6700;51.988;7.646;2022-07-24T10:21:10;6.45;;;5.80;;
13263;SDS011;6700;51.988;7.646;2022-07-24T10:26:33;7.40;;;5.85;;
13263;SDS011;6700;51.988;7.646;2022-07-24T10:29:07;10.40;;;5.82;;
13263;SDS011;6700;51.988;7.646;2022-07-24T10:31:37;5.40;;;4.90;;
13263;SDS011;6700;51.988;7.646;2022-07-24T10:34:06;7.05;;;5.80;;
13263;SDS011;6700;51.988;7.646;2022-07-24T10:36:35;7.85;;;5.55;;
13263;SDS011;6700;51.988;7.646;2022-07-24T10:39:05;7.25;;;6.10;;
13263;SDS011;6700;51.988;7.646;2022-07-24T10:41:35;9.80;;;6.40;;
13263;SDS011;6700;51.988;7.646;2022-07-24T10:44:18;7.75;;;5.40;;
13263;SDS011;6700;51.988;7.646;2022-07-24T10:49:32;8.88;;;6.75;;
13263;SDS011;6700;51.988;7.646;2022-07-24T10:52:00;6.40;;;5.78;;
13263;SDS011;6700;51.988;7.646;2022-07-24T10:54:27;12.95;;;6.82;;
13263;SDS011;6700;51.988;7.646;2022-07-24T10:56:54;7.35;;;6.03;;
13263;SDS011;6700;51.988;7.646;2022-07-24T10:59:32;6.93;;;6.20;;
13263;SDS011;6700;51.988;7.646;2022-07-24T11:04:46;6.60;;;6.00;;
13263;SDS011;6700;51.988;7.646;2022-07-24T11:07:13;6.78;;;5.82;;
13263;SDS011;6700;51.988;7.646;2022-07-24T11:09:58;10.15;;;5.57;;
13263;SDS011;6700;51.988;7.646;2022-07-24T11:12:28;6.30;;;5.70;;
13263;SDS011;6700;51.988;7.646;2022-07-24T11:15:00;6.35;;;5.75;;
13263;SDS011;6700;51.988;7.646;2022-07-24T11:17:46;6.68;;;5.97;;
13263;SDS011;6700;51.988;7.646;2022-07-24T11:20:15;9.90;;;6.15;;
13263;SDS011;6700;51.988;7.646;2022-07-24T11:25:12;5.90;;;5.30;;
13263;SDS011;6700;51.988;7.646;2022-07-24T11:27:41;6.80;;;6.05;;
13263;SDS011;6700;51.988;7.646;2022-07-24T11:30:09;6.15;;;5.65;;
13263;SDS011;6700;51.988;7.646;2022-07-24T11:32:39;6.90;;;6.30;;
13263;SDS011;6700;51.988;7.646;2022-07-24T11:35:07;7.07;;;6.00;;
13263;SDS011;6700;51.988;7.646;2022-07-24T11:37:35;6.68;;;5.82;;
13263;SDS011;6700;51.988;7.646;2022-07-24T11:40:03;9.20;;;5.60;;
13263;SDS011;6700;51.988;7.646;2022-07-24T11:42:32;9.68;;;6.20;;
13263;SDS011;6700;51.988;7.646;2022-07-24T11:45:02;8.30;;;6.35;;
13263;SDS011;6700;51.988;7.646;2022-07-24T11:47:32;7.72;;;6.75;;
13263;SDS011;6700;51.988;7.646;2022-07-24T11:50:01;7.05;;;5.90;;
13263;SDS011;6700;51.988;7.646;2022-07-24T11:52:38;9.85;;;5.90;;
13263;SDS011;6700;51.988;7.646;2022-07-24T11:55:07;7.90;;;6.22;;
13263;SDS011;6700;51.988;7.646;2022-07-24T11:57:43;6.85;;;5.80;;
13263;SDS011;6700;51.988;7.646;2022-07-24T12:00:30;9.00;;;8.05;;
13263;SDS011;6700;51.988;7.646;2022-07-24T12:03:05;7.93;;;5.85;;
13263;SDS011;6700;51.988;7.646;2022-07-24T12:05:36;10.32;;;6.70;;
13263;SDS011;6700;51.988;7.646;2022-07-24T12:08:19;8.27;;;6.60;;
13263;SDS011;6700;51.988;7.646;2022-07-24T12:10:48;6.72;;;6.05;;
13263;SDS011;6700;51.988;7.646;2022-07-24T12:13:21;9.68;;;6.13;;
13263;SDS011;6700;51.988;7.646;2022-07-24T12:16:00;6.88;;;6.18;;
13263;SDS011;6700;51.988;7.646;2022-07-24T12:18:28;8.60;;;6.05;;
13263;SDS011;6700;51.988;7.646;2022-07-24T12:21:10;7.38;;;5.50;;
13263;SDS011;6700;51.988;7.646;2022-07-24T12:23:38;7.00;;;6.15;;
13263;SDS011;6700;51.988;7.646;2022-07-24T12:26:11;7.13;;;6.43;;
13263;SDS011;6700;51.988;7.646;2022-07-24T12:28:40;7.28;;;6.20;;
13263;SDS011;6700;51.988;7.646;2022-07-24T12:31:07;6.90;;;5.93;;
13263;SDS011;6700;51.988;7.646;2022-07-24T12:33:37;7.78;;;6.30;;
13263;SDS011;6700;51.988;7.646;2022-07-24T12:36:06;6.97;;;6.45;;
13263;SDS011;6700;51.988;7.646;2022-07-24T12:38:53;8.35;;;5.90;;
13263;SDS011;6700;51.988;7.646;2022-07-24T12:41:49;7.20;;;6.50;;
13263;SDS011;6700;51.988;7.646;2022-07-24T12:44:17;7.18;;;6.47;;
13263;SDS011;6700;51.988;7.646;2022-07-24T12:46:53;7.60;;;6.72;;
13263;SDS011;6700;51.988;7.646;2022-07-24T12:49:28;6.93;;;6.22;;
13263;SDS011;6700;51.988;7.646;2022-07-24T12:52:24;6.80;;;5.95;;
13263;SDS011;6700;51.988;7.646;2022-07-24T12:54:53;6.65;;;6.03;;
13263;SDS011;6700;51.988;7.646;2022-07-24T12:57:40;8.93;;;6.45;;
13263;SDS011;6700;51.988;7.646;2022-07-24T13:00:21;7.68;;;6.32;;
13263;SDS011;6700;51.988;7.646;2022-07-24T13:02:49;7.20;;;6.47;;
13263;SDS011;6700;51.988;7.646;2022-07-24T13:05:35;6.55;;;5.78;;
13263;SDS011;6700;51.988;7.646;2022-07-24T13:08:05;8.10;;;6.63;;
13263;SDS011;6700;51.988;7.646;2022-07-24T13:10:34;7.28;;;6.63;;
13263;SDS011;6700;51.988;7.646;2022-07-24T13:13:02;8.23;;;6.53;;
13263;SDS011;6700;51.988;7.646;2022-07-24T13:15:31;7.55;;;6.22;;
13263;SDS011;6700;51.988;7.646;2022-07-24T13:18:00;6.95;;;6.13;;
13263;SDS011;6700;51.988;7.646;2022-07-24T13:20:27;7.93;;;7.10;;
13263;SDS011;6700;51.988;7.646;2022-07-24T13:22:56;6.78;;;6.07;;
13263;SDS011;6700;51.988;7.646;2022-07-24T13:25:27;6.45;;;5.95;;
13263;SDS011;6700;51.988;7.646;2022-07-24T13:28:04;7.05;;;6.35;;
13263;SDS011;6700;51.988;7.646;2022-07-24T13:30:39;8.95;;;6.25;;
13263;SDS011;6700;51.988;7.646;2022-07-24T13:33:07;7.18;;;6.35;;
13263;SDS011;6700;51.988;7.646;2022-07-24T13:35:37;7.68;;;6.88;;
13263;SDS011;6700;51.988;7.646;2022-07-24T13:38:08;9.95;;;6.10;;
13263;SDS011;6700;51.988;7.646;2022-07-24T13:40:39;6.75;;;6.15;;
13263;SDS011;6700;51.988;7.646;2022-07-24T13:43:06;6.90;;;6.30;;
13263;SDS011;6700;51.988;7.646;2022-07-24T13:45:34;8.02;;;6.40;;
13263;SDS011;6700;51.988;7.646;2022-07-24T13:48:01;7.50;;;6.55;;
13263;SDS011;6700;51.988;7.646;2022-07-24T13:50:28;9.25;;;6.07;;
13263;SDS011;6700;51.988;7.646;2022-07-24T13:52:56;7.00;;;5.95;;
13263;SDS011;6700;51.988;7.646;2022-07-24T13:55:23;7.32;;;5.65;;
13263;SDS011;6700;51.988;7.646;2022-07-24T13:57:50;9.25;;;6.50;;
13263;SDS011;6700;51.988;7.646;2022-07-24T14:00:19;9.57;;;7.25;;
13263;SDS011;6700;51.988;7.646;2022-07-24T14:02:46;7.03;;;6.40;;
13263;SDS011;6700;51.988;7.646;2022-07-24T14:05:14;6.53;;;5.93;;
13263;SDS011;6700;51.988;7.646;2022-07-24T14:07:46;7.28;;;6.15;;
13263;SDS011;6700;51.988;7.646;2022-07-24T14:10:18;8.25;;;6.03;;
13263;SDS011;6700;51.988;7.646;2022-07-24T14:12:47;7.78;;;6.82;;
13263;SDS011;6700;51.988;7.646;2022-07-24T14:15:59;8.25;;;6.45;;
13263;SDS011;6700;51.988;7.646;2022-07-24T14:18:35;6.32;;;5.75;;
13263;SDS011;6700;51.988;7.646;2022-07-24T14:21:31;9.52;;;6.47;;
13263;SDS011;6700;51.988;7.646;2022-07-24T14:24:17;8.30;;;6.32;;
13263;SDS011;6700;51.988;7.646;2022-07-24T14:26:56;7.28;;;6.28;;
13263;SDS011;6700;51.988;7.646;2022-07-24T14:29:35;8.27;;;5.70;;
13263;SDS011;6700;51.988;7.646;2022-07-24T14:32:03;7.47;;;6.25;;
13263;SDS011;6700;51.988;7.646;2022-07-24T14:34:33;7.10;;;6.22;;
13263;SDS011;6700;51.988;7.646;2022-07-24T14:37:00;6.53;;;5.82;;
13263;SDS011;6700;51.988;7.646;2022-07-24T14:39:28;11.13;;;6.75;;
13263;SDS011;6700;51.988;7.646;2022-07-24T14:41:57;7.25;;;6.55;;
13263;SDS011;6700;51.988;7.646;2022-07-24T14:44:24;7.25;;;6.10;;
13263;SDS011;6700;51.988;7.646;2022-07-24T14:46:52;7.32;;;6.03;;
13263;SDS011;6700;51.988;7.646;2022-07-24T14:49:20;6.78;;;6.10;;
13263;SDS011;6700;51.988;7.646;2022-07-24T14:51:47;7.70;;;5.85;;
13263;SDS011;6700;51.988;7.646;2022-07-24T14:54:14;6.65;;;5.90;;
13263;SDS011;6700;51.988;7.646;2022-07-24T14:56:42;6.82;;;6.03;;
13263;SDS011;6700;51.988;7.646;2022-07-24T14:59:10;7.47;;;6.78;;
13263;SDS011;6700;51.988;7.646;2022-07-24T15:01:45;6.85;;;6.00;;
13263;SDS011;6700;51.988;7.646;2022-07-24T15:04:12;8.20;;;6.22;;
13263;SDS011;6700;51.988;7.646;2022-07-24T15:06:40;7.10;;;5.47;;
13263;SDS011;6700;51.988;7.646;2022-07-24T15:09:07;7.13;;;5.80;;
13263;SDS011;6700;51.988;7.646;2022-07-24T15:11:34;8.77;;;5.90;;
13263;SDS011;6700;51.988;7.646;2022-07-24T15:14:04;8.02;;;6.03;;
13263;SDS011;6700;51.988;7.646;2022-07-24T15:16:32;7.40;;;6.70;;
13263;SDS011;6700;51.988;7.646;2022-07-24T15:19:01;6.90;;;6.18;;
13263;SDS011;6700;51.988;7.646;2022-07-24T15:21:33;6.72;;;6.13;;
13263;SDS011;6700;51.988;7.646;2022-07-24T15:24:00;6.22;;;5.63;;
13263;SDS011;6700;51.988;7.646;2022-07-24T15:26:28;6.65;;;5.95;;
13263;SDS011;6700;51.988;7.646;2022-07-24T15:28:55;6.03;;;5.53;;
13263;SDS011;6700;51.988;7.646;2022-07-24T15:31:23;6.72;;;5.90;;
13263;SDS011;6700;51.988;7.646;2022-07-24T15:33:52;8.10;;;7.30;;
13263;SDS011;6700;51.988;7.646;2022-07-24T15:36:20;12.40;;;7.28;;
13263;SDS011;6700;51.988;7.646;2022-07-24T15:38:51;6.38;;;5.65;;
13263;SDS011;6700;51.988;7.646;2022-07-24T15:41:19;6.25;;;5.75;;
13263;SDS011;6700;51.988;7.646;2022-07-24T15:43:46;6.38;;;5.35;;
13263;SDS011;6700;51.988;7.646;2022-07-24T15:46:14;7.38;;;5.85;;